Time;durP1;ratioP1;P1;durP2;ratioP2;P2;SDS_P1;SDS_P2;PMS_P1;PMS_P2;Temp;Humidity;BMP_temperature;BMP_pressure;BME280_temperature;BME280_humidity;BME280_pressure;Samples;Min_cycle;Max_cycle;Signal;HPM_P1;HPM_P2
2022/04/13 00:01:33;;;;;;;4.80;3.22;;;;;;;10.71;49.91;100625.69;4939799;28;20055;-87
2022/04/13 00:04:00;;;;;;;4.70;3.78;;;;;;;10.69;49.87;100632.72;4952715;28;20054;-87
2022/04/13 00:06:26;;;;;;;3.65;3.20;;;;;;;10.68;49.78;100630.09;4929641;28;20054;-87
2022/04/13 00:08:55;;;;;;;4.85;3.45;;;;;;;10.65;50.08;100627.50;4934594;28;20062;-85
2022/04/13 00:11:23;;;;;;;6.72;3.78;;;;;;;10.64;50.03;100625.75;4935795;28;20065;-84
2022/04/13 00:13:49;;;;;;;5.05;3.72;;;;;;;10.60;50.29;100630.19;4938986;28;20050;-85
2022/04/13 00:16:16;;;;;;;3.17;2.88;;;;;;;10.56;50.21;100631.94;4946938;28;20051;-86
2022/04/13 00:18:42;;;;;;;4.55;3.40;;;;;;;10.52;50.31;100632.88;4955117;28;20047;-86
2022/04/13 00:21:09;;;;;;;4.03;3.45;;;;;;;10.48;50.62;100622.44;4935529;28;20118;-85
2022/04/13 00:23:35;;;;;;;5.65;4.25;;;;;;;10.45;50.80;100625.09;4950371;28;20125;-85
2022/04/13 00:26:02;;;;;;;3.60;2.78;;;;;;;10.40;50.80;100625.09;4951324;28;20587;-85
2022/04/13 00:28:28;;;;;;;3.30;2.78;;;;;;;10.36;51.02;100619.03;4950290;28;20435;-87
2022/04/13 00:30:55;;;;;;;5.85;3.50;;;;;;;10.34;51.39;100628.63;4937298;28;20418;-85
2022/04/13 00:33:21;;;;;;;6.30;4.53;;;;;;;10.29;51.18;100624.31;4933870;28;20046;-84
2022/04/13 00:35:48;;;;;;;4.78;3.15;;;;;;;10.25;51.28;100623.47;4951027;28;20047;-85
2022/04/13 00:38:15;;;;;;;6.18;3.50;;;;;;;10.21;51.46;100627.84;4948267;28;20981;-85
2022/04/13 00:40:41;;;;;;;4.25;3.00;;;;;;;10.17;51.86;100614.78;4935194;28;20058;-85
2022/04/13 00:43:08;;;;;;;3.83;3.30;;;;;;;10.14;51.67;100622.69;4937262;28;20149;-85
2022/04/13 00:45:35;;;;;;;4.45;3.40;;;;;;;10.12;51.88;100625.31;4952800;28;20057;-86
2022/04/13 00:48:04;;;;;;;5.85;3.15;;;;;;;10.09;51.98;100627.97;4947964;28;20420;-86
2022/04/13 00:50:31;;;;;;;5.53;3.10;;;;;;;10.08;52.19;100628.84;4966642;28;20457;-84
2022/04/13 00:53:00;;;;;;;3.40;2.50;;;;;;;10.06;52.42;100631.47;4929862;28;20497;-84
2022/04/13 00:55:28;;;;;;;3.78;3.20;;;;;;;10.06;52.30;100622.72;4937427;28;20055;-86
2022/04/13 00:57:58;;;;;;;3.83;2.88;;;;;;;10.05;52.78;100634.97;4959963;28;20059;-85
2022/04/13 01:00:25;;;;;;;3.00;2.70;;;;;;;10.05;52.68;100626.22;4953334;28;20086;-85
2022/04/13 01:02:53;;;;;;;4.70;3.15;;;;;;;10.04;52.49;100633.22;4949146;28;20251;-85
2022/04/13 01:05:23;;;;;;;3.00;2.70;;;;;;;10.00;52.79;100631.50;4970678;28;20047;-85
2022/04/13 01:07:52;;;;;;;3.40;3.08;;;;;;;10.02;52.57;100628.88;4946467;28;20049;-83
2022/04/13 01:10:19;;;;;;;4.72;2.58;;;;;;;9.99;52.83;100634.13;4949782;28;20046;-87
2022/04/13 01:12:45;;;;;;;5.60;3.65;;;;;;;9.96;52.78;100635.03;4934903;28;20607;-85
2022/04/13 01:15:12;;;;;;;3.83;3.15;;;;;;;9.96;53.08;100636.75;4952294;28;20081;-85
2022/04/13 01:17:40;;;;;;;10.38;3.63;;;;;;;9.93;52.93;100633.28;4928456;28;20608;-86
2022/04/13 01:20:11;;;;;;;3.47;2.65;;;;;;;9.93;52.99;100638.53;4951910;28;20050;-85
2022/04/13 01:22:37;;;;;;;3.40;2.97;;;;;;;9.87;53.29;100630.72;4948898;28;20062;-85
2022/04/13 01:25:04;;;;;;;3.63;2.80;;;;;;;9.83;53.15;100636.84;4937777;28;20061;-85
2022/04/13 01:27:31;;;;;;;4.47;2.65;;;;;;;9.81;53.37;100651.66;4926158;28;20054;-85
2022/04/13 01:29:58;;;;;;;3.97;2.65;;;;;;;9.79;53.62;100644.69;4955300;28;20054;-84
2022/04/13 01:32:24;;;;;;;3.38;3.03;;;;;;;9.77;54.02;100642.09;4954445;28;20051;-85
2022/04/13 01:34:53;;;;;;;4.50;3.03;;;;;;;9.75;53.72;100636.88;4935601;28;20078;-85
2022/04/13 01:37:20;;;;;;;3.47;3.03;;;;;;;9.73;53.93;100649.09;4925642;28;20039;-84
2022/04/13 01:39:47;;;;;;;3.17;2.80;;;;;;;9.71;54.18;100644.75;4949112;28;20042;-86
2022/04/13 01:42:14;;;;;;;3.45;2.50;;;;;;;9.70;54.25;100641.28;4948074;28;20054;-85
2022/04/13 01:44:41;;;;;;;6.05;2.67;;;;;;;9.71;54.17;100639.50;4950027;28;20129;-85
2022/04/13 01:47:09;;;;;;;4.80;3.03;;;;;;;9.70;54.31;100643.88;4931909;28;20057;-86
2022/04/13 01:49:37;;;;;;;4.60;2.83;;;;;;;9.69;54.08;100636.06;4950128;28;20485;-85
2022/04/13 01:52:10;;;;;;;7.50;3.50;;;;;;;9.64;54.47;100646.53;4934138;28;20051;-85
2022/04/13 01:54:36;;;;;;;4.95;2.88;;;;;;;9.62;54.63;100642.19;4950935;28;20650;-85
2022/04/13 01:57:03;;;;;;;5.50;2.83;;;;;;;9.62;54.60;100644.78;4931070;28;20042;-85
2022/04/13 01:59:30;;;;;;;5.03;2.65;;;;;;;9.58;54.37;100639.59;4939059;28;20054;-85
2022/04/13 02:01:56;;;;;;;6.05;3.08;;;;;;;9.56;54.96;100637.88;4935118;28;20054;-85
2022/04/13 02:04:26;;;;;;;6.75;2.67;;;;;;;9.54;54.93;100639.59;4936640;28;20054;-85
2022/04/13 02:06:53;;;;;;;7.95;3.08;;;;;;;9.53;54.82;100641.38;4944281;28;20057;-86
2022/04/13 02:09:21;;;;;;;3.58;2.78;;;;;;;9.51;54.92;100652.69;4935469;28;20074;-85
2022/04/13 02:11:48;;;;;;;2.97;2.72;;;;;;;9.53;55.09;100643.97;4937409;28;20050;-85
2022/04/13 02:14:14;;;;;;;7.82;3.95;;;;;;;9.56;54.99;100643.09;4953231;28;20330;-85
2022/04/13 02:16:42;;;;;;;6.55;3.15;;;;;;;9.57;54.76;100643.06;4946395;28;20075;-85
2022/04/13 02:19:09;;;;;;;4.55;3.38;;;;;;;9.56;55.19;100637.88;4932767;28;20063;-84
2022/04/13 02:21:36;;;;;;;5.35;3.00;;;;;;;9.56;55.17;100640.47;4934940;28;20329;-85
2022/04/13 02:24:03;;;;;;;3.28;2.97;;;;;;;9.56;54.87;100637.88;4951795;28;20051;-87
2022/04/13 02:26:29;;;;;;;3.63;3.05;;;;;;;9.58;55.18;100638.72;4946948;28;20501;-85
2022/04/13 02:28:56;;;;;;;4.32;3.03;;;;;;;9.59;55.29;100636.13;4937818;28;20129;-85
2022/04/13 02:31:23;;;;;;;5.70;3.00;;;;;;;9.62;55.18;100630.00;4949308;28;20797;-85
2022/04/13 02:33:52;;;;;;;4.13;3.33;;;;;;;9.65;55.36;100629.97;4934070;28;20043;-85
2022/04/13 02:36:19;;;;;;;3.58;3.03;;;;;;;9.69;55.01;100625.59;4928986;28;20055;-84
2022/04/13 02:38:48;;;;;;;3.92;3.53;;;;;;;9.73;54.75;100622.94;4936138;28;20501;-85
2022/04/13 02:41:15;;;;;;;4.70;3.63;;;;;;;9.77;54.32;100629.88;4918129;28;20225;-85
2022/04/13 02:43:41;;;;;;;4.53;2.92;;;;;;;9.82;54.14;100636.84;4950821;28;20062;-86
2022/04/13 02:46:08;;;;;;;4.25;2.83;;;;;;;9.82;54.28;100637.72;4946647;28;20098;-85
2022/04/13 02:48:35;;;;;;;3.47;2.63;;;;;;;9.81;54.39;100641.19;4953926;28;20046;-87
2022/04/13 02:51:01;;;;;;;3.58;3.13;;;;;;;9.81;54.58;100643.81;4950662;28;20051;-86
2022/04/13 02:53:30;;;;;;;6.25;3.13;;;;;;;9.77;54.46;100640.34;4947961;28;20047;-86
2022/04/13 02:55:57;;;;;;;5.63;3.47;;;;;;;9.70;54.64;100635.16;4927818;28;20056;-87
2022/04/13 02:58:24;;;;;;;3.25;2.60;;;;;;;9.66;54.75;100644.78;4949435;28;20047;-86
2022/04/13 03:00:51;;;;;;;4.88;3.30;;;;;;;9.59;55.05;100651.78;4951913;28;20062;-84
2022/04/13 03:03:17;;;;;;;5.00;2.60;;;;;;;9.56;55.09;100645.72;4931122;28;20043;-87
2022/04/13 03:05:44;;;;;;;6.72;3.00;;;;;;;9.56;54.86;100648.31;4950555;28;20047;-83
2022/04/13 03:08:11;;;;;;;6.70;3.45;;;;;;;9.55;54.96;100649.19;4928958;28;20039;-87
2022/04/13 03:10:37;;;;;;;8.73;3.08;;;;;;;9.58;54.51;100642.22;4935041;28;20047;-84
2022/04/13 03:13:04;;;;;;;5.70;2.67;;;;;;;9.60;54.48;100640.44;4948019;28;20066;-84
2022/04/13 03:15:31;;;;;;;3.00;2.67;;;;;;;9.63;54.68;100634.31;4922908;28;20047;-85
2022/04/13 03:17:57;;;;;;;3.83;2.85;;;;;;;9.63;54.75;100634.31;4943228;28;20047;-85
2022/04/13 03:20:24;;;;;;;5.20;3.30;;;;;;;9.64;54.48;100643.06;4948998;28;20556;-88
2022/04/13 03:22:50;;;;;;;6.03;3.65;;;;;;;9.63;54.69;100644.78;4949166;28;20754;-85
2022/04/13 03:25:18;;;;;;;4.78;3.13;;;;;;;9.60;54.91;100653.50;4935214;28;20050;-86
2022/04/13 03:27:45;;;;;;;6.97;3.75;;;;;;;9.58;55.19;100641.31;4932799;28;20054;-87
2022/04/13 03:30:13;;;;;;;5.05;3.05;;;;;;;9.56;55.01;100649.19;4970235;28;20051;-87
2022/04/13 03:32:40;;;;;;;3.60;2.97;;;;;;;9.58;55.08;100650.06;4940571;28;20051;-86
2022/04/13 03:35:11;;;;;;;5.38;3.05;;;;;;;9.56;55.37;100649.19;4939432;28;20051;-85
2022/04/13 03:37:39;;;;;;;3.15;2.85;;;;;;;9.56;55.09;100646.56;4944149;28;20050;-85
2022/04/13 03:40:08;;;;;;;3.50;3.20;;;;;;;9.56;55.58;100650.94;4968451;28;20074;-85
2022/04/13 03:42:36;;;;;;;4.78;3.10;;;;;;;9.55;55.12;100649.19;4954784;28;20047;-85
2022/04/13 03:45:12;;;;;;;3.67;3.05;;;;;;;9.52;54.89;100655.28;4956040;28;20078;-85
2022/04/13 03:47:40;;;;;;;6.75;3.42;;;;;;;9.50;55.62;100645.72;4932585;28;20027;-87
2022/04/13 03:50:09;;;;;;;4.53;2.95;;;;;;;9.48;55.27;100645.75;4933909;28;20050;-87
2022/04/13 03:52:36;;;;;;;3.53;2.63;;;;;;;9.47;55.60;100651.84;4929673;28;20748;-86
2022/04/13 03:55:06;;;;;;;3.97;2.83;;;;;;;9.49;55.52;100657.94;4950592;28;20050;-86
2022/04/13 03:57:32;;;;;;;4.10;3.28;;;;;;;9.48;55.71;100658.81;4927340;28;20698;-86
2022/04/13 03:59:59;;;;;;;5.97;3.75;;;;;;;9.47;55.85;100658.81;4938174;28;20668;-86
2022/04/13 04:02:25;;;;;;;4.50;3.20;;;;;;;9.47;55.96;100670.13;4935886;28;20053;-85
2022/04/13 04:04:52;;;;;;;4.78;3.08;;;;;;;9.48;56.16;100671.88;4930886;28;20053;-86
2022/04/13 04:07:18;;;;;;;4.18;3.13;;;;;;;9.48;55.85;100673.59;4943846;28;20051;-87
2022/04/13 04:09:45;;;;;;;7.40;3.55;;;;;;;9.49;55.89;100683.19;4937405;28;20137;-85
2022/04/13 04:12:11;;;;;;;4.70;3.25;;;;;;;9.50;55.89;100677.94;4934391;28;20089;-86
2022/04/13 04:14:39;;;;;;;4.60;3.30;;;;;;;9.51;55.99;100679.69;4940485;28;21538;-85
2022/04/13 04:17:06;;;;;;;3.65;2.60;;;;;;;9.51;56.00;100676.22;4928295;28;20186;-86
2022/04/13 04:19:32;;;;;;;3.83;2.72;;;;;;;9.50;55.75;100677.09;4951271;28;20066;-86
2022/04/13 04:21:59;;;;;;;5.32;2.78;;;;;;;9.47;55.97;100677.97;4943215;28;20054;-84
2022/04/13 04:24:26;;;;;;;5.97;2.80;;;;;;;9.47;56.02;100679.72;4939137;28;20101;-85
2022/04/13 04:26:53;;;;;;;6.57;2.80;;;;;;;9.48;56.15;100684.94;4930405;28;20057;-86
2022/04/13 04:29:19;;;;;;;3.13;2.55;;;;;;;9.49;56.08;100671.00;4931038;28;20549;-85
2022/04/13 04:31:53;;;;;;;4.82;2.75;;;;;;;9.50;56.08;100677.09;4932611;28;20050;-85
2022/04/13 04:34:21;;;;;;;;;;;;;;;9.52;56.15;100677.97;4930776;28;20380;-86
2022/04/13 04:36:53;;;;;;;3.53;3.08;;;;;;;9.51;55.65;100677.06;4927847;28;19926;-87
2022/04/13 04:39:34;;;;;;;5.47;3.47;;;;;;;9.56;55.76;100684.91;4933046;28;20047;-87
2022/04/13 04:42:02;;;;;;;4.05;2.88;;;;;;;9.59;55.69;100677.94;4933594;28;20772;-86
2022/04/13 04:44:28;;;;;;;3.55;3.25;;;;;;;9.62;55.77;100681.38;4951735;28;20046;-85
2022/04/13 04:46:58;;;;;;;5.20;3.30;;;;;;;9.63;55.57;100677.91;4938300;28;20065;-87
2022/04/13 04:49:25;;;;;;;3.35;2.95;;;;;;;9.64;55.59;100675.28;4951908;28;20053;-86
2022/04/13 04:51:51;;;;;;;6.43;2.50;;;;;;;9.68;55.89;100677.00;4932803;28;20531;-87
2022/04/13 04:54:21;;;;;;;13.23;6.30;;;;;;;9.72;55.44;100678.72;4949534;28;20055;-86
2022/04/13 04:56:47;;;;;;;4.22;3.30;;;;;;;9.75;55.28;100678.72;4945967;28;20526;-85
2022/04/13 04:59:15;;;;;;;2.80;2.55;;;;;;;9.80;55.56;100677.81;4951088;28;20070;-87
2022/04/13 05:01:43;;;;;;;4.43;3.63;;;;;;;9.81;55.77;100677.81;4946576;28;20094;-86
2022/04/13 05:04:10;;;;;;;5.32;3.20;;;;;;;9.83;55.43;100680.41;4944658;28;20062;-84
2022/04/13 05:06:36;;;;;;;3.95;3.10;;;;;;;9.84;55.56;100690.88;4947550;28;20054;-84
2022/04/13 05:09:03;;;;;;;2.85;2.65;;;;;;;9.87;55.48;100684.75;4945938;28;20047;-84
2022/04/13 05:11:30;;;;;;;7.72;3.60;;;;;;;9.87;55.31;100692.59;4958541;28;20062;-84
2022/04/13 05:13:56;;;;;;;3.05;2.65;;;;;;;9.89;55.54;100693.44;4957253;28;20090;-85
2022/04/13 05:16:23;;;;;;;3.40;3.10;;;;;;;9.92;55.67;100698.66;4948140;28;20063;-85
2022/04/13 05:18:50;;;;;;;5.03;3.17;;;;;;;9.95;55.58;100698.66;4959893;28;20985;-85
2022/04/13 05:21:31;;;;;;;5.80;3.33;;;;;;;9.97;55.45;100699.50;4957764;28;20051;-86
2022/04/13 05:23:57;;;;;;;4.28;2.85;;;;;;;10.03;55.07;100693.38;4957448;28;20055;-84
2022/04/13 05:26:33;;;;;;;7.50;3.10;;;;;;;10.06;55.00;100704.69;4959656;28;21419;-86
2022/04/13 05:28:59;;;;;;;3.95;3.10;;;;;;;10.10;55.18;100701.19;4962680;28;20047;-84
2022/04/13 05:31:26;;;;;;;4.15;2.67;;;;;;;10.15;54.60;100708.97;4950352;28;20030;-84
2022/04/13 05:33:52;;;;;;;4.05;2.97;;;;;;;10.21;54.75;100715.94;4964269;28;20100;-84
2022/04/13 05:36:19;;;;;;;5.80;2.83;;;;;;;10.24;54.51;100714.16;4960097;28;20046;-85
2022/04/13 05:38:46;;;;;;;6.15;2.85;;;;;;;10.30;54.39;100720.22;4931168;28;20053;-86
2022/04/13 05:41:13;;;;;;;4.75;3.67;;;;;;;10.33;54.56;100715.84;4957812;28;20055;-85
2022/04/13 05:43:39;;;;;;;4.30;3.28;;;;;;;10.38;54.38;100716.72;4961271;28;20110;-85
2022/04/13 05:46:06;;;;;;;5.13;3.17;;;;;;;10.43;54.48;100732.41;4963002;28;20445;-83
2022/04/13 05:48:33;;;;;;;4.78;3.13;;;;;;;10.47;53.94;100731.50;4948472;28;20047;-84
2022/04/13 05:51:00;;;;;;;9.38;2.50;;;;;;;10.53;54.05;100736.69;4946897;28;20061;-84
2022/04/13 05:53:27;;;;;;;12.48;8.45;;;;;;;10.57;54.26;100735.78;4962176;28;20031;-84
2022/04/13 05:55:56;;;;;;;6.32;3.70;;;;;;;10.65;54.11;100742.69;4964195;28;20046;-84
2022/04/13 05:58:26;;;;;;;3.88;2.92;;;;;;;10.72;53.64;100749.63;4968701;28;20057;-84
2022/04/13 06:00:59;;;;;;;3.97;2.78;;;;;;;10.78;53.56;100739.13;4967447;28;20038;-85
2022/04/13 06:03:33;;;;;;;4.97;3.35;;;;;;;10.89;53.63;100747.72;4971060;28;20142;-85
2022/04/13 06:06:00;;;;;;;2.95;2.53;;;;;;;10.97;52.79;100744.19;4969178;28;20058;-84
2022/04/13 06:08:27;;;;;;;2.92;2.72;;;;;;;11.04;52.65;100753.69;4968754;28;20027;-83
2022/04/13 06:10:56;;;;;;;7.97;3.28;;;;;;;11.10;52.54;100753.66;4953284;28;20504;-85
2022/04/13 06:13:25;;;;;;;8.48;3.13;;;;;;;11.17;52.63;100757.97;4970603;28;20110;-85
2022/04/13 06:15:52;;;;;;;5.30;3.45;;;;;;;11.27;52.21;100760.50;4952350;28;20062;-84
2022/04/13 06:18:19;;;;;;;4.38;2.58;;;;;;;11.36;51.82;100758.63;4954221;28;20057;-85
2022/04/13 06:20:46;;;;;;;3.85;2.85;;;;;;;11.46;51.86;100758.53;4969711;28;20075;-85
2022/04/13 06:23:20;;;;;;;9.35;3.33;;;;;;;11.56;51.54;100760.16;4953325;28;20082;-85
2022/04/13 06:25:52;;;;;;;4.93;3.25;;;;;;;11.66;51.40;100767.03;4954007;28;20121;-85
2022/04/13 06:28:20;;;;;;;10.00;3.90;;;;;;;11.77;51.12;100764.28;4967701;28;20082;-85
2022/04/13 06:30:55;;;;;;;5.53;3.38;;;;;;;11.87;51.05;100762.44;4966092;28;20050;-84
2022/04/13 06:33:22;;;;;;;5.43;2.47;;;;;;;11.99;50.44;100767.53;4969839;28;20038;-84
2022/04/13 06:35:52;;;;;;;5.47;3.13;;;;;;;12.11;50.12;100773.53;4947593;28;20054;-84
2022/04/13 06:38:21;;;;;;;5.85;2.97;;;;;;;12.24;49.70;100768.09;4951981;28;20051;-85
2022/04/13 06:40:55;;;;;;;4.68;3.08;;;;;;;12.40;49.70;100781.00;4962571;28;20055;-85
2022/04/13 06:43:24;;;;;;;2.65;2.45;;;;;;;12.51;49.12;100776.44;4950699;28;20038;-84
2022/04/13 06:45:56;;;;;;;5.40;2.78;;;;;;;12.61;49.22;100782.44;4983887;28;20047;-84
2022/04/13 06:48:26;;;;;;;3.80;2.83;;;;;;;12.72;48.87;100785.78;4953228;28;20047;-85
2022/04/13 06:51:03;;;;;;;5.22;2.30;;;;;;;12.84;48.66;100783.81;4949277;28;20058;-84
2022/04/13 06:53:34;;;;;;;5.88;2.72;;;;;;;12.89;48.26;100782.88;4948655;28;20084;-85
2022/04/13 06:56:08;;;;;;;3.55;2.67;;;;;;;12.96;48.24;100790.63;4950675;28;20026;-85
2022/04/13 06:58:50;;;;;;;4.93;2.78;;;;;;;13.03;48.12;100787.88;4953109;28;20070;-86
2022/04/13 07:01:17;;;;;;;2.83;2.25;;;;;;;13.17;47.84;100787.66;4966168;28;20033;-84
2022/04/13 07:03:44;;;;;;;7.70;3.28;;;;;;;13.42;47.24;100791.63;4965605;28;20043;-85
2022/04/13 07:06:18;;;;;;;3.63;3.22;;;;;;;13.70;47.05;100792.84;4961514;28;20059;-86
2022/04/13 07:08:48;;;;;;;4.10;2.95;;;;;;;13.98;46.46;100787.00;4965400;28;20070;-83
2022/04/13 07:11:18;;;;;;;5.47;2.20;;;;;;;14.27;45.87;100789.91;4965078;28;20038;-86
2022/04/13 07:13:45;;;;;;;3.47;2.55;;;;;;;14.56;45.44;100789.25;4969409;28;20066;-84
2022/04/13 07:16:12;;;;;;;4.55;2.67;;;;;;;14.87;45.02;100792.06;4970383;28;20059;-85
2022/04/13 07:18:45;;;;;;;6.28;2.95;;;;;;;15.15;43.97;100787.88;4966944;28;20365;-85
2022/04/13 07:21:14;;;;;;;2.60;2.40;;;;;;;15.37;44.02;100785.53;4948956;28;20057;-85
2022/04/13 07:23:49;;;;;;;5.03;2.53;;;;;;;15.68;43.00;100793.47;4969776;28;20325;-85
2022/04/13 07:26:20;;;;;;;3.13;2.55;;;;;;;15.98;42.88;100797.94;4947266;28;20057;-84
2022/04/13 07:28:47;;;;;;;5.55;2.40;;;;;;;16.25;41.91;100798.03;4970071;28;20070;-84
2022/04/13 07:31:16;;;;;;;7.30;2.70;;;;;;;16.49;41.69;100802.56;4968708;28;20135;-84
2022/04/13 07:33:44;;;;;;;6.85;2.60;;;;;;;16.77;41.20;100799.03;4947742;28;20027;-84
2022/04/13 07:36:23;;;;;;;4.85;2.33;;;;;;;17.10;40.29;100804.13;4953741;28;20070;-86
2022/04/13 07:38:53;;;;;;;5.35;2.78;;;;;;;17.35;39.94;100798.88;4967533;28;20050;-84
2022/04/13 07:41:37;;;;;;;3.83;2.28;;;;;;;17.54;39.58;100798.22;4961637;28;20058;-84
2022/04/13 07:44:07;;;;;;;3.53;2.28;;;;;;;17.86;39.28;100806.81;4964608;28;20109;-86
2022/04/13 07:46:41;;;;;;;5.60;2.40;;;;;;;18.27;38.48;100800.88;4973248;28;20055;-85
2022/04/13 07:49:10;;;;;;;1.40;1.27;;;;;;;18.82;37.60;100796.00;4973485;28;20287;-84
2022/04/13 07:51:44;;;;;;;3.95;3.58;;;;;;;19.43;36.49;100797.03;4953740;28;20066;-85
2022/04/13 07:54:24;;;;;;;2.40;2.20;;;;;;;20.10;35.39;100800.28;4946101;28;20066;-85
2022/04/13 07:56:54;;;;;;;2.42;2.22;;;;;;;20.79;34.09;100795.25;4948674;28;20051;-85
2022/04/13 07:59:36;;;;;;;2.55;1.75;;;;;;;21.34;33.03;100804.94;4968435;28;20035;-85
2022/04/13 08:02:15;;;;;;;3.40;2.35;;;;;;;21.54;32.05;100805.69;4970983;28;20114;-85
2022/04/13 08:04:44;;;;;;;3.47;2.30;;;;;;;21.30;32.53;100804.22;4947789;28;20039;-86
2022/04/13 08:07:19;;;;;;;3.30;2.30;;;;;;;21.15;32.39;100812.97;4956615;28;20063;-85
2022/04/13 08:09:50;;;;;;;8.57;1.90;;;;;;;20.89;32.62;100807.16;4967898;28;20067;-85
2022/04/13 08:12:23;;;;;;;4.53;2.90;;;;;;;20.59;32.79;100820.16;4947809;28;20123;-86
2022/04/13 08:14:53;;;;;;;3.97;2.05;;;;;;;20.16;33.55;100823.03;4959204;28;20047;-85
2022/04/13 08:17:25;;;;;;;1.67;1.58;;;;;;;19.77;33.59;100823.91;4953065;28;20107;-85
2022/04/13 08:19:59;;;;;;;6.65;2.08;;;;;;;19.51;34.52;100833.88;4948918;28;20051;-85
2022/04/13 08:22:28;;;;;;;2.58;1.80;;;;;;;19.88;34.25;100831.41;4956818;28;20034;-84
2022/04/13 08:25:04;;;;;;;2.55;1.85;;;;;;;20.70;33.21;100831.13;4951999;28;20047;-86
2022/04/13 08:27:31;;;;;;;2.28;1.40;;;;;;;21.56;31.77;100834.00;4948222;28;20034;-83
2022/04/13 08:29:58;;;;;;;3.72;2.50;;;;;;;22.17;31.24;100831.63;4965342;28;20043;-87
2022/04/13 08:32:25;;;;;;;2.65;1.83;;;;;;;22.89;30.52;100839.22;4960998;28;20051;-85
2022/04/13 08:34:53;;;;;;;2.92;2.58;;;;;;;23.52;29.82;100835.53;4945364;28;20046;-85
2022/04/13 08:37:27;;;;;;;4.10;1.90;;;;;;;23.82;29.01;100839.97;4961913;28;20154;-85
2022/04/13 08:39:54;;;;;;;1.67;1.58;;;;;;;23.97;29.31;100840.00;4950655;28;20051;-86
2022/04/13 08:43:09;;;;;;;2.35;2.00;;;;;;;24.47;28.27;100840.41;4941429;28;20077;-85
2022/04/13 08:45:43;;;;;;;2.83;2.10;;;;;;;25.17;27.88;100839.41;4959168;28;20544;-85
2022/04/13 08:48:13;;;;;;;3.10;2.05;;;;;;;25.56;27.25;100846.56;4962139;28;20059;-86
2022/04/13 08:50:45;;;;;;;2.00;1.90;;;;;;;25.80;27.25;100836.91;4942750;28;20047;-85
2022/04/13 08:53:15;;;;;;;2.53;1.73;;;;;;;26.16;26.84;100843.34;4954968;28;20047;-86
2022/04/13 08:55:53;;;;;;;2.53;1.55;;;;;;;26.51;25.98;100851.53;4939789;28;20299;-85
2022/04/13 08:58:41;;;;;;;3.58;1.90;;;;;;;26.60;26.32;100850.00;4954942;28;20094;-87
2022/04/13 09:01:30;;;;;;;1.80;1.70;;;;;;;26.81;25.68;100852.94;4967457;28;20058;-86
2022/04/13 09:04:07;;;;;;;1.33;1.23;;;;;;;26.78;26.35;100857.69;4948222;28;20051;-85
2022/04/13 09:06:36;;;;;;;16.98;12.43;;;;;;;26.83;26.74;100858.19;4963117;28;20047;-85
2022/04/13 09:09:06;;;;;;;6.05;2.05;;;;;;;27.15;26.48;100854.94;4950505;28;20046;-86
2022/04/13 09:11:38;;;;;;;2.80;1.95;;;;;;;27.40;25.98;100852.13;4942453;28;20530;-85
2022/04/13 09:14:06;;;;;;;2.55;2.20;;;;;;;27.55;25.67;100846.53;4968506;28;20054;-86
2022/04/13 09:16:33;;;;;;;3.50;1.88;;;;;;;27.52;25.96;100850.31;4930035;28;20062;-86
2022/04/13 09:19:03;;;;;;;4.10;1.70;;;;;;;27.47;25.72;100857.88;4932699;28;20047;-85
2022/04/13 09:21:31;;;;;;;3.92;1.95;;;;;;;27.47;25.92;100857.88;4927603;28;20050;-85
2022/04/13 09:24:00;;;;;;;2.58;2.10;;;;;;;27.48;25.95;100862.28;4932969;28;20166;-84
2022/04/13 09:26:28;;;;;;;5.18;2.17;;;;;;;27.75;25.91;100860.25;4946654;28;20084;-85
2022/04/13 09:28:55;;;;;;;3.70;1.70;;;;;;;27.66;25.80;100868.03;4946915;28;20053;-85
2022/04/13 09:31:21;;;;;;;3.60;2.33;;;;;;;27.44;25.71;100866.16;4929569;28;20054;-86
2022/04/13 09:33:49;;;;;;;5.03;2.50;;;;;;;27.42;26.36;100867.25;4945114;28;20061;-85
2022/04/13 09:36:15;;;;;;;4.97;2.13;;;;;;;27.45;26.04;100872.41;4947440;28;20607;-85
2022/04/13 09:38:43;;;;;;;2.53;1.80;;;;;;;27.60;26.01;100873.03;4948195;28;20042;-85
2022/04/13 09:41:12;;;;;;;5.63;2.03;;;;;;;27.98;25.75;100875.44;4947364;28;20484;-86
2022/04/13 09:43:39;;;;;;;4.20;2.03;;;;;;;28.17;25.47;100871.28;4968599;28;20043;-85
2022/04/13 09:46:06;;;;;;;5.70;2.20;;;;;;;28.37;25.71;100867.84;4943380;28;20055;-84
2022/04/13 09:48:34;;;;;;;9.60;2.03;;;;;;;28.84;24.89;100869.50;4945939;28;20525;-85
2022/04/13 09:51:02;;;;;;;3.83;1.90;;;;;;;29.49;24.56;100867.63;4941183;28;20094;-85
2022/04/13 09:53:29;;;;;;;5.30;2.20;;;;;;;30.13;23.95;100862.16;4962450;28;20046;-84
2022/04/13 09:55:59;;;;;;;2.72;1.85;;;;;;;30.49;23.48;100863.47;4930486;28;20050;-84
2022/04/13 09:58:29;;;;;;;6.70;2.38;;;;;;;30.69;23.42;100867.03;4932571;28;20173;-85
2022/04/13 10:01:00;;;;;;;5.47;2.38;;;;;;;30.88;23.38;100867.19;4946336;28;20047;-85
2022/04/13 10:03:27;;;;;;;7.25;2.22;;;;;;;30.77;23.41;100865.47;4943662;28;20113;-86
2022/04/13 10:05:56;;;;;;;11.02;4.63;;;;;;;30.45;23.96;100863.81;4951335;28;20056;-85
2022/04/13 10:08:25;;;;;;;6.32;2.30;;;;;;;30.29;24.13;100867.06;4935812;28;20050;-86
2022/04/13 10:10:56;;;;;;;4.10;2.00;;;;;;;29.96;24.65;100866.34;4946931;28;20046;-86
2022/04/13 10:13:37;;;;;;;4.47;2.47;;;;;;;30.06;24.85;100867.25;4934580;28;20089;-84
2022/04/13 10:16:09;;;;;;;4.93;2.45;;;;;;;30.19;24.59;100859.78;4951505;28;20058;-83
2022/04/13 10:19:03;;;;;;;3.90;2.15;;;;;;;30.52;24.60;100863.16;4949301;28;20078;-85
2022/04/13 10:21:41;;;;;;;4.53;2.00;;;;;;;30.83;23.76;100864.91;4935602;28;20065;-85
2022/04/13 10:24:24;;;;;;;5.05;2.25;;;;;;;30.53;24.07;100869.41;4944617;28;20062;-85
2022/04/13 10:27:07;;;;;;;8.20;2.50;;;;;;;30.62;24.18;100865.88;4937357;28;20058;-87
2022/04/13 10:29:37;;;;;;;5.75;2.97;;;;;;;31.11;23.92;100870.53;4935158;28;20042;-87
2022/04/13 10:32:16;;;;;;;5.72;2.42;;;;;;;31.51;23.35;100866.75;4952946;28;20054;-86
2022/04/13 10:34:49;;;;;;;6.97;2.20;;;;;;;31.92;23.26;100874.66;4934810;28;20055;-85
2022/04/13 10:37:19;;;;;;;4.43;2.83;;;;;;;32.65;22.59;100872.00;4948942;28;20051;-86
2022/04/13 10:39:47;;;;;;;3.90;3.15;;;;;;;33.06;22.27;100876.16;4928282;28;20057;-85
2022/04/13 10:42:16;;;;;;;4.93;2.17;;;;;;;33.49;22.04;100869.06;4946062;28;20055;-85
2022/04/13 10:44:50;;;;;;;4.72;3.00;;;;;;;33.83;21.70;100868.28;4949319;28;20705;-85
2022/04/13 10:47:19;;;;;;;3.55;1.88;;;;;;;33.82;21.32;100869.34;4963475;28;20169;-84
2022/04/13 10:50:02;;;;;;;3.70;2.22;;;;;;;34.13;21.20;100872.38;4946811;28;20042;-86
2022/04/13 10:52:53;;;;;;;3.47;2.00;;;;;;;34.66;20.53;100871.38;4942345;28;21011;-86
2022/04/13 10:55:21;;;;;;;8.45;2.85;;;;;;;34.55;20.93;100881.53;4941236;28;20041;-86
2022/04/13 10:57:54;;;;;;;5.00;3.08;;;;;;;34.20;21.03;100879.88;4930720;28;20057;-86
2022/04/13 11:00:23;;;;;;;6.00;2.58;;;;;;;33.94;21.47;100881.59;4947574;28;20130;-84
2022/04/13 11:03:03;;;;;;;4.25;2.78;;;;;;;33.73;21.84;100876.53;4948360;28;20078;-86
2022/04/13 11:05:31;;;;;;;8.85;2.53;;;;;;;33.83;21.08;100871.00;4948925;28;20058;-85
2022/04/13 11:08:15;;;;;;;3.70;2.42;;;;;;;34.23;20.64;100874.09;4942261;28;20520;-84
2022/04/13 11:10:43;;;;;;;4.65;1.90;;;;;;;34.72;20.86;100874.28;4943910;28;20058;-84
2022/04/13 11:13:10;;;;;;;3.85;2.33;;;;;;;35.07;20.44;100885.91;4932082;28;20061;-85
2022/04/13 11:15:45;;;;;;;8.30;2.85;;;;;;;34.66;20.47;100879.53;4949325;28;20360;-85
2022/04/13 11:18:16;;;;;;;7.22;2.45;;;;;;;34.02;21.34;100877.25;4932075;28;20046;-85
2022/04/13 11:21:08;;;;;;;6.30;2.38;;;;;;;33.67;20.59;100870.91;4929764;28;20492;-85
2022/04/13 11:23:48;;;;;;;6.50;1.80;;;;;;;33.75;21.23;100874.50;4958454;28;20069;-85
2022/04/13 11:26:16;;;;;;;7.97;2.28;;;;;;;33.85;21.04;100876.31;4927351;28;20465;-85
2022/04/13 11:28:43;;;;;;;6.47;2.80;;;;;;;33.98;21.15;100868.56;4950580;28;20432;-85
2022/04/13 11:31:12;;;;;;;3.83;2.30;;;;;;;34.29;20.89;100878.88;4951160;28;20638;-86
2022/04/13 11:34:00;;;;;;;4.47;1.90;;;;;;;33.96;20.58;100879.59;4932033;28;20617;-87
2022/04/13 11:36:31;;;;;;;5.28;1.80;;;;;;;33.90;20.92;100871.25;4927650;28;20050;-84
2022/04/13 11:38:57;;;;;;;7.20;2.33;;;;;;;33.59;21.45;100868.97;4930068;28;20050;-86
2022/04/13 11:41:24;;;;;;;8.05;2.13;;;;;;;33.30;21.74;100868.25;4931318;28;20650;-85